Time;durP1;ratioP1;P1;durP2;ratioP2;P2;SDS_P1;SDS_P2;PMS_P1;PMS_P2;Temp;Humidity;BMP_temperature;BMP_pressure;BME280_temperature;BME280_humidity;BME280_pressure;Samples;Min_cycle;Max_cycle;Signal;HPM_P1;HPM_P2
2022/11/21 00:00:07;;;;;;;28.97;17.33;;;-2.80;99.90;;;;;;4912514;28;20249;-79
2022/11/21 00:02:34;;;;;;;26.27;16.43;;;-2.80;99.90;;;;;;4905424;28;20221;-79
2022/11/21 00:05:00;;;;;;;71.23;19.07;;;-2.80;99.90;;;;;;4902143;28;20235;-79
2022/11/21 00:07:27;;;;;;;26.30;16.53;;;-2.80;99.90;;;;;;4899421;28;20632;-79
2022/11/21 00:09:54;;;;;;;24.40;15.97;;;-2.90;99.90;;;;;;4912337;28;20220;-78
2022/11/21 00:12:20;;;;;;;27.77;16.30;;;-2.90;99.90;;;;;;4912750;28;20237;-78
2022/11/21 00:14:48;;;;;;;22.70;16.30;;;-2.90;99.90;;;;;;4898704;28;20229;-78
2022/11/21 00:17:15;;;;;;;25.70;16.97;;;-2.90;99.90;;;;;;4902171;28;20261;-79
2022/11/21 00:19:41;;;;;;;26.93;17.07;;;-3.00;99.90;;;;;;4902869;28;20244;-79
2022/11/21 00:22:08;;;;;;;22.57;15.60;;;-3.00;99.90;;;;;;4894583;28;20229;-79
2022/11/21 00:24:35;;;;;;;23.20;16.13;;;-3.00;99.90;;;;;;4895946;28;20244;-79
2022/11/21 00:27:01;;;;;;;22.27;14.70;;;-3.00;99.90;;;;;;4906248;28;20233;-79
2022/11/21 00:29:28;;;;;;;23.97;15.00;;;-3.00;99.90;;;;;;4914576;28;20227;-78
2022/11/21 00:31:56;;;;;;;22.03;15.17;;;-3.00;99.90;;;;;;4901485;28;20229;-79
2022/11/21 00:34:23;;;;;;;25.30;15.83;;;-3.00;99.90;;;;;;4904022;28;20763;-79
2022/11/21 00:36:50;;;;;;;24.63;16.13;;;-3.00;99.90;;;;;;4909821;28;20224;-79
2022/11/21 00:39:16;;;;;;;23.87;16.13;;;-3.10;99.90;;;;;;4895765;28;20727;-78
2022/11/21 00:41:43;;;;;;;22.00;15.77;;;-3.10;99.90;;;;;;4901915;28;20708;-79
2022/11/21 00:44:10;;;;;;;24.17;15.93;;;-3.10;99.90;;;;;;4907718;28;20231;-79
2022/11/21 00:46:37;;;;;;;26.30;16.07;;;-3.10;99.90;;;;;;4904213;28;20242;-79
2022/11/21 00:49:05;;;;;;;23.87;15.77;;;-3.10;99.90;;;;;;4897143;28;20225;-78
2022/11/21 00:51:31;;;;;;;23.40;15.60;;;-3.20;99.90;;;;;;4928650;28;20228;-78
2022/11/21 00:53:58;;;;;;;25.90;16.67;;;-3.20;99.90;;;;;;4904270;28;20233;-78
2022/11/21 00:56:25;;;;;;;24.37;16.50;;;-3.20;99.90;;;;;;4903431;28;20227;-78
2022/11/21 00:58:51;;;;;;;22.20;15.20;;;-3.30;99.90;;;;;;4922985;28;20910;-79
2022/11/21 01:01:18;;;;;;;21.60;14.23;;;-3.30;99.90;;;;;;4916184;28;20240;-78
2022/11/21 01:03:45;;;;;;;27.00;16.03;;;-3.30;99.90;;;;;;4894632;28;20225;-79
2022/11/21 01:06:15;;;;;;;25.77;16.00;;;-3.40;99.90;;;;;;4899436;28;20260;-78
2022/11/21 01:08:43;;;;;;;25.10;15.73;;;-3.40;99.90;;;;;;4924440;28;20235;-79
2022/11/21 01:11:13;;;;;;;24.60;15.43;;;-3.40;99.90;;;;;;4923915;28;20568;-79
2022/11/21 01:13:40;;;;;;;21.30;14.33;;;-3.40;99.90;;;;;;4917758;28;20239;-80
2022/11/21 01:16:09;;;;;;;26.23;16.23;;;-3.50;99.90;;;;;;4897360;28;20596;-79
2022/11/21 01:18:36;;;;;;;22.37;15.23;;;-3.50;99.90;;;;;;4908213;28;20314;-79
2022/11/21 01:21:04;;;;;;;26.60;16.70;;;-3.50;99.90;;;;;;4914064;28;20724;-78
2022/11/21 01:23:33;;;;;;;25.43;16.30;;;-3.50;99.90;;;;;;4936409;28;20324;-79
2022/11/21 01:26:03;;;;;;;23.43;16.00;;;-3.50;99.90;;;;;;4907419;28;20719;-79
2022/11/21 01:28:30;;;;;;;23.60;16.00;;;-3.60;99.90;;;;;;4984377;28;20236;-79
2022/11/21 01:31:03;;;;;;;23.57;15.53;;;-3.60;99.90;;;;;;4908674;28;20229;-79
2022/11/21 01:33:30;;;;;;;23.70;15.80;;;-3.60;99.90;;;;;;4940885;28;20239;-79
2022/11/21 01:35:57;;;;;;;24.07;16.53;;;-3.60;99.90;;;;;;4907733;28;20223;-79
2022/11/21 01:38:23;;;;;;;24.43;17.43;;;-3.60;99.90;;;;;;4906210;28;20263;-79
2022/11/21 01:40:51;;;;;;;24.00;15.43;;;-3.60;99.90;;;;;;4904445;28;21088;-79
2022/11/21 01:43:18;;;;;;;22.60;14.70;;;-3.60;99.90;;;;;;4914329;28;20748;-80
2022/11/21 01:45:57;;;;;;;24.63;15.70;;;-3.60;99.90;;;;;;4903073;28;20225;-79
2022/11/21 01:48:30;;;;;;;28.07;18.47;;;-3.60;99.90;;;;;;4927414;28;20239;-79
2022/11/21 01:51:03;;;;;;;23.20;15.87;;;-3.60;99.90;;;;;;4934270;28;20225;-78
2022/11/21 01:53:30;;;;;;;24.73;16.10;;;-3.60;99.90;;;;;;4993325;28;20236;-78
2022/11/21 01:55:58;;;;;;;23.83;16.67;;;-3.60;99.90;;;;;;4903981;28;20527;-79
2022/11/21 01:58:25;;;;;;;24.07;16.13;;;-3.50;99.90;;;;;;4898083;28;20697;-78
2022/11/21 02:00:52;;;;;;;26.40;17.07;;;-3.50;99.90;;;;;;4893446;28;20264;-78
2022/11/21 02:03:24;;;;;;;25.70;17.43;;;-3.50;99.90;;;;;;4905599;28;20648;-78
2022/11/21 02:05:54;;;;;;;26.30;17.10;;;-3.50;99.90;;;;;;4917455;28;20221;-78
2022/11/21 02:08:22;;;;;;;25.30;16.37;;;-3.50;99.90;;;;;;4903318;28;20231;-80
2022/11/21 02:10:56;;;;;;;25.83;16.90;;;-3.40;99.90;;;;;;4910302;28;20220;-79
2022/11/21 02:13:25;;;;;;;25.63;16.70;;;-3.40;99.90;;;;;;4908975;28;20316;-80
2022/11/21 02:15:52;;;;;;;22.60;15.07;;;-3.40;99.90;;;;;;4906066;28;20264;-79
2022/11/21 02:18:18;;;;;;;25.57;17.50;;;-3.40;99.90;;;;;;4911595;28;20225;-79
2022/11/21 02:20:53;;;;;;;24.03;16.10;;;-3.30;99.90;;;;;;4912140;28;20224;-81
2022/11/21 02:23:25;;;;;;;24.67;15.83;;;-3.40;99.90;;;;;;4912446;28;20318;-80
2022/11/21 02:25:54;;;;;;;24.10;15.90;;;-3.40;99.90;;;;;;4899857;28;20221;-80
2022/11/21 02:28:23;;;;;;;21.73;15.10;;;-3.40;99.90;;;;;;4910912;28;20245;-78
2022/11/21 02:30:50;;;;;;;25.57;14.67;;;-3.40;99.90;;;;;;4919473;28;20232;-78
2022/11/21 02:33:17;;;;;;;24.67;15.40;;;-3.30;99.90;;;;;;4906073;28;20319;-78
2022/11/21 02:35:44;;;;;;;23.07;14.73;;;-3.40;99.90;;;;;;4901239;28;20247;-78
2022/11/21 02:38:17;;;;;;;26.23;15.37;;;-3.30;99.90;;;;;;4903224;28;20221;-78
2022/11/21 02:40:50;;;;;;;21.43;15.40;;;-3.30;99.90;;;;;;4927578;28;20318;-79
2022/11/21 02:43:22;;;;;;;26.50;16.37;;;-3.30;99.90;;;;;;4910453;28;20234;-79
2022/11/21 02:45:49;;;;;;;25.83;15.87;;;-3.30;99.90;;;;;;4916763;28;20230;-78
2022/11/21 02:48:15;;;;;;;36.77;22.33;;;-3.30;99.90;;;;;;4907450;28;20234;-78
2022/11/21 02:50:44;;;;;;;45.43;26.37;;;-3.30;99.90;;;;;;4903837;28;20240;-78
2022/11/21 02:53:12;;;;;;;49.07;28.43;;;-3.30;99.90;;;;;;4902464;28;20232;-79
2022/11/21 02:55:39;;;;;;;46.73;26.97;;;-3.30;99.90;;;;;;4902226;28;20248;-79
2022/11/21 02:58:06;;;;;;;35.77;22.80;;;-3.30;99.90;;;;;;4917313;28;20229;-79
2022/11/21 03:00:36;;;;;;;29.53;19.37;;;-3.30;99.90;;;;;;4906308;28;20308;-78
2022/11/21 03:03:02;;;;;;;29.47;18.70;;;-3.30;99.90;;;;;;4910123;28;20241;-79
2022/11/21 03:05:30;;;;;;;30.17;17.63;;;-3.30;99.90;;;;;;4915868;28;20783;-79
2022/11/21 03:07:56;;;;;;;27.57;17.30;;;-3.30;99.90;;;;;;4906329;28;20807;-79
2022/11/21 03:10:23;;;;;;;25.07;16.77;;;-3.40;99.90;;;;;;4909269;28;21199;-79
2022/11/21 03:12:59;;;;;;;22.90;15.57;;;-3.40;99.90;;;;;;4902442;28;20231;-79
2022/11/21 03:15:27;;;;;;;30.53;17.40;;;-3.40;99.90;;;;;;4915586;28;20240;-78
2022/11/21 03:17:55;;;;;;;29.03;17.03;;;-3.40;99.90;;;;;;4927097;28;20221;-78
2022/11/21 03:20:22;;;;;;;24.77;15.90;;;-3.40;99.90;;;;;;4913147;28;20228;-79
2022/11/21 03:22:49;;;;;;;22.63;15.63;;;-3.50;99.90;;;;;;4902110;28;20227;-78
2022/11/21 03:25:16;;;;;;;28.57;18.13;;;-3.50;99.90;;;;;;4914424;28;20314;-78
2022/11/21 03:27:42;;;;;;;29.90;18.53;;;-3.50;99.90;;;;;;4913700;28;20244;-77
2022/11/21 03:30:10;;;;;;;29.77;19.47;;;-3.60;99.90;;;;;;4904519;28;20232;-77
2022/11/21 03:32:37;;;;;;;27.10;18.13;;;-3.60;99.90;;;;;;4912684;28;20229;-78
2022/11/21 03:35:06;;;;;;;26.00;17.47;;;-3.60;99.90;;;;;;4900968;28;20231;-77
2022/11/21 03:37:33;;;;;;;25.43;17.00;;;-3.70;99.90;;;;;;4901563;28;20230;-78
2022/11/21 03:39:59;;;;;;;23.47;15.97;;;-3.70;99.90;;;;;;4913320;28;20248;-78
2022/11/21 03:42:26;;;;;;;26.13;16.70;;;-3.70;99.90;;;;;;4905258;28;20713;-76
2022/11/21 03:44:53;;;;;;;24.37;16.03;;;-3.70;99.90;;;;;;4900429;28;20239;-77
2022/11/21 03:47:19;;;;;;;26.40;16.17;;;-3.70;99.90;;;;;;4917844;28;20235;-78
2022/11/21 03:49:46;;;;;;;26.70;16.80;;;-3.70;99.90;;;;;;4911941;28;20227;-78
2022/11/21 03:52:14;;;;;;;27.97;17.40;;;-3.70;99.90;;;;;;4901466;28;20229;-78
2022/11/21 03:54:40;;;;;;;22.50;15.63;;;-3.70;99.90;;;;;;4898293;28;20237;-79
2022/11/21 03:57:07;;;;;;;25.97;16.40;;;-3.60;99.90;;;;;;4914203;28;20221;-78
2022/11/21 03:59:34;;;;;;;26.63;16.20;;;-3.70;99.90;;;;;;4923552;28;20229;-78
2022/11/21 04:02:00;;;;;;;48.23;25.00;;;-3.70;99.90;;;;;;4914373;28;20581;-78
2022/11/21 04:04:27;;;;;;;50.07;21.50;;;-3.70;99.90;;;;;;4915557;28;20346;-78
2022/11/21 04:06:54;;;;;;;41.47;22.53;;;-3.70;99.90;;;;;;4909834;28;20741;-82
2022/11/21 04:09:22;;;;;;;27.07;16.63;;;-3.70;99.90;;;;;;4906744;28;20767;-79
2022/11/21 04:11:48;;;;;;;39.80;19.07;;;-3.80;99.90;;;;;;4906126;28;20239;-79
2022/11/21 04:14:15;;;;;;;103.13;24.67;;;-3.80;99.90;;;;;;4898537;28;20760;-82
2022/11/21 04:16:42;;;;;;;78.90;21.90;;;-3.80;99.90;;;;;;4911536;28;20258;-81
2022/11/21 04:19:09;;;;;;;52.00;21.20;;;-3.80;99.90;;;;;;4924175;28;20225;-78
2022/11/21 04:21:35;;;;;;;223.90;31.07;;;-3.70;99.90;;;;;;4917539;28;20229;-77
2022/11/21 04:24:02;;;;;;;184.97;29.27;;;-3.70;99.90;;;;;;4905629;28;20239;-80
2022/11/21 04:26:30;;;;;;;313.47;39.10;;;-3.60;99.90;;;;;;4914585;28;20233;-78
2022/11/21 04:28:57;;;;;;;118.73;28.67;;;-3.60;99.90;;;;;;4915939;28;20235;-78
2022/11/21 04:31:24;;;;;;;141.90;25.27;;;-3.50;99.90;;;;;;4908895;28;20403;-78
2022/11/21 04:33:51;;;;;;;309.67;38.67;;;-3.40;99.90;;;;;;4905246;28;20232;-78
2022/11/21 04:36:17;;;;;;;156.67;28.87;;;-3.30;99.90;;;;;;4906062;28;20255;-83
2022/11/21 04:38:44;;;;;;;146.43;29.33;;;-3.20;99.90;;;;;;4907317;28;20375;-79
2022/11/21 04:41:11;;;;;;;181.47;31.60;;;-3.10;99.90;;;;;;4906219;28;20228;-87
2022/11/21 04:43:39;;;;;;;435.03;49.37;;;-3.10;99.90;;;;;;4912978;28;20317;-83
2022/11/21 04:46:05;;;;;;;123.63;28.53;;;-3.00;99.90;;;;;;4908450;28;20226;-79
2022/11/21 04:48:32;;;;;;;54.67;25.30;;;-2.90;99.90;;;;;;4921717;28;20236;-84
2022/11/21 04:50:59;;;;;;;52.23;25.60;;;-2.90;99.90;;;;;;4912723;28;20222;-79
2022/11/21 04:53:25;;;;;;;78.93;26.63;;;-2.80;99.90;;;;;;4902149;28;20229;-80
2022/11/21 04:55:52;;;;;;;259.40;38.80;;;-2.80;99.90;;;;;;4904292;28;20241;-80
2022/11/21 04:58:19;;;;;;;99.90;28.87;;;-2.70;99.90;;;;;;4914860;28;20233;-80
2022/11/21 05:00:47;;;;;;;50.23;25.17;;;-2.70;99.90;;;;;;4911120;28;20666;-83
2022/11/21 05:03:13;;;;;;;48.70;25.03;;;-2.70;99.90;;;;;;4899991;28;21093;-78
2022/11/21 05:05:40;;;;;;;51.63;24.03;;;-2.70;99.90;;;;;;4904080;28;20226;-81
2022/11/21 05:08:07;;;;;;;92.07;28.60;;;-2.60;99.90;;;;;;4909378;28;20846;-78
2022/11/21 05:13:19;;;;;;;50.43;25.50;;;-2.60;99.90;;;;;;4909950;28;20666;-83
2022/11/21 05:13:19;;;;;;;73.60;27.57;;;-2.60;99.90;;;;;;4906882;28;20293;-78
2022/11/21 05:15:50;;;;;;;126.57;28.87;;;-2.60;99.90;;;;;;4906557;28;20713;-78
2022/11/21 05:18:18;;;;;;;90.40;28.10;;;-2.60;99.90;;;;;;4911461;28;20284;-80
2022/11/21 05:20:47;;;;;;;104.47;26.93;;;-2.50;99.90;;;;;;4905672;28;20219;-78
2022/11/21 05:23:14;;;;;;;89.33;27.63;;;-2.50;99.90;;;;;;4902036;28;20326;-80
2022/11/21 05:25:41;;;;;;;94.67;26.00;;;-2.50;99.90;;;;;;4914627;28;20830;-79
2022/11/21 05:28:09;;;;;;;64.20;23.23;;;-2.50;99.90;;;;;;4910419;28;20230;-79
2022/11/21 05:30:36;;;;;;;203.83;32.23;;;-2.50;99.90;;;;;;4917309;28;20229;-80
2022/11/21 05:33:04;;;;;;;144.20;26.27;;;-2.40;99.90;;;;;;4900743;28;20232;-78
2022/11/21 05:35:31;;;;;;;245.33;31.70;;;-2.40;99.90;;;;;;4980499;28;20312;-80
2022/11/21 05:37:59;;;;;;;87.70;24.33;;;-2.40;99.90;;;;;;4904636;28;20231;-82
2022/11/21 05:40:25;;;;;;;77.20;24.50;;;-2.40;99.90;;;;;;4905180;28;20228;-80
2022/11/21 05:45:36;;;;;;;244.43;30.77;;;-2.40;99.90;;;;;;4933347;28;20231;-80
2022/11/21 05:48:06;;;;;;;131.60;28.50;;;-2.40;99.90;;;;;;4917899;28;20249;-81
2022/11/21 05:50:34;;;;;;;90.10;25.67;;;-2.40;99.90;;;;;;4981249;28;20221;-79
2022/11/21 05:53:02;;;;;;;216.53;29.40;;;-2.40;99.90;;;;;;4898831;28;20612;-80
2022/11/21 05:55:29;;;;;;;250.20;29.77;;;-2.40;99.90;;;;;;4945906;28;20239;-80
2022/11/21 05:57:58;;;;;;;229.50;30.80;;;-2.50;99.90;;;;;;4898249;28;20226;-81
2022/11/21 06:00:25;;;;;;;217.17;29.93;;;-2.50;99.90;;;;;;4919080;28;20227;-80
2022/11/21 06:05:37;;;;;;;161.00;25.07;;;-2.60;99.90;;;;;;4944051;28;20734;-79
2022/11/21 06:08:04;;;;;;;196.17;28.50;;;-2.60;99.90;;;;;;4905999;28;20222;-81
2022/11/21 06:10:31;;;;;;;725.20;71.60;;;-2.70;99.90;;;;;;4904965;28;20304;-80
2022/11/21 06:13:00;;;;;;;260.43;32.07;;;-2.70;99.90;;;;;;4902373;28;20248;-80
2022/11/21 06:15:27;;;;;;;179.30;27.03;;;-2.70;99.90;;;;;;4905010;28;20229;-81
2022/11/21 06:17:53;;;;;;;189.17;28.57;;;-2.70;99.90;;;;;;4903449;28;20540;-78
2022/11/21 06:20:20;;;;;;;307.70;38.63;;;-2.70;99.90;;;;;;4900165;28;20233;-81
2022/11/21 06:22:48;;;;;;;260.87;32.77;;;-2.70;99.90;;;;;;4902775;28;20229;-79
2022/11/21 06:25:15;;;;;;;110.77;24.03;;;-2.70;99.90;;;;;;4906558;28;20227;-79
2022/11/21 06:27:41;;;;;;;168.97;28.67;;;-2.70;99.90;;;;;;4923357;28;20233;-79
2022/11/21 06:30:09;;;;;;;241.57;33.17;;;-2.70;99.90;;;;;;4905562;28;20218;-79
2022/11/21 06:32:37;;;;;;;700.43;79.53;;;-2.70;99.90;;;;;;4925816;28;20237;-79
2022/11/21 06:35:04;;;;;;;61.17;23.70;;;-2.70;99.90;;;;;;4912895;28;20281;-79
2022/11/21 06:37:31;;;;;;;71.23;23.47;;;-2.70;99.90;;;;;;4903908;28;20235;-79
2022/11/21 06:39:59;;;;;;;66.77;23.03;;;-2.70;99.90;;;;;;4900550;28;20321;-79
2022/11/21 06:42:25;;;;;;;63.53;23.10;;;-2.60;99.90;;;;;;4906331;28;20942;-78
2022/11/21 06:44:52;;;;;;;182.60;31.37;;;-2.60;99.90;;;;;;4901382;28;20241;-79
2022/11/21 06:47:19;;;;;;;301.20;37.30;;;-2.60;99.90;;;;;;4897218;28;20222;-79
2022/11/21 06:49:45;;;;;;;105.37;27.10;;;-2.50;99.90;;;;;;4903353;28;20320;-79
2022/11/21 06:52:12;;;;;;;98.80;28.80;;;-2.50;99.90;;;;;;4902019;28;20229;-79
2022/11/21 06:54:39;;;;;;;107.30;28.90;;;-2.50;99.90;;;;;;4905993;28;20240;-80
2022/11/21 06:57:07;;;;;;;80.73;27.37;;;-2.50;99.90;;;;;;4898348;28;20682;-79
2022/11/21 06:59:33;;;;;;;65.93;26.80;;;-2.50;99.90;;;;;;4907349;28;20236;-79
2022/11/21 07:02:00;;;;;;;73.10;27.20;;;-2.50;99.90;;;;;;4897527;28;20222;-79
2022/11/21 07:04:27;;;;;;;58.60;25.33;;;-2.50;99.90;;;;;;4899083;28;20233;-80
2022/11/21 07:06:54;;;;;;;47.70;24.03;;;-2.40;99.90;;;;;;4899118;28;20253;-80
2022/11/21 07:09:20;;;;;;;94.63;27.13;;;-2.50;99.90;;;;;;4904209;28;20308;-79
2022/11/21 07:14:34;;;;;;;82.53;26.33;;;-2.40;99.90;;;;;;4918391;28;20957;-80
2022/11/21 07:17:01;;;;;;;47.27;24.97;;;-2.40;99.90;;;;;;4904882;28;20230;-79
2022/11/21 07:19:27;;;;;;;44.53;24.73;;;-2.40;99.90;;;;;;4911030;28;20643;-79
2022/11/21 07:21:54;;;;;;;43.00;24.30;;;-2.40;99.90;;;;;;4904360;28;20257;-80
2022/11/21 07:24:21;;;;;;;111.40;26.20;;;-2.40;99.90;;;;;;4899663;28;20242;-81
2022/11/21 07:26:47;;;;;;;52.23;23.23;;;-2.50;99.90;;;;;;4907917;28;20225;-77
2022/11/21 07:29:14;;;;;;;48.50;24.27;;;-2.50;99.90;;;;;;4906525;28;20729;-79
2022/11/21 07:31:42;;;;;;;50.87;25.60;;;-2.50;99.90;;;;;;4905869;28;20228;-80
2022/11/21 07:34:09;;;;;;;65.57;25.37;;;-2.50;99.90;;;;;;4908171;28;20234;-79
2022/11/21 07:36:35;;;;;;;89.90;27.27;;;-2.50;99.90;;;;;;4908734;28;20255;-79
2022/11/21 07:39:02;;;;;;;76.43;26.07;;;-2.50;99.90;;;;;;4924610;28;20226;-81
2022/11/21 07:41:29;;;;;;;272.83;38.83;;;-2.50;99.90;;;;;;4954209;28;20417;-81
2022/11/21 07:43:56;;;;;;;62.37;23.73;;;-2.50;99.90;;;;;;4906317;28;20703;-78
2022/11/21 07:46:22;;;;;;;52.67;23.97;;;-2.50;99.90;;;;;;4909445;28;20242;-81
2022/11/21 07:48:50;;;;;;;68.57;22.73;;;-2.40;99.90;;;;;;4904863;28;20329;-77
2022/11/21 07:51:17;;;;;;;54.27;22.83;;;-2.40;99.90;;;;;;4903964;28;20243;-80
2022/11/21 07:53:44;;;;;;;48.13;23.53;;;-2.40;99.90;;;;;;4909802;28;20234;-79
2022/11/21 07:56:10;;;;;;;242.17;34.80;;;-2.40;99.90;;;;;;4903889;28;20245;-79
2022/11/21 07:58:37;;;;;;;60.77;24.33;;;-2.40;99.90;;;;;;4905120;28;20226;-78
2022/11/21 08:01:05;;;;;;;49.13;23.33;;;-2.40;99.90;;;;;;4905074;28;20281;-78
2022/11/21 08:03:31;;;;;;;43.77;22.10;;;-2.30;99.90;;;;;;4901011;28;20576;-78
2022/11/21 08:06:01;;;;;;;92.07;27.30;;;-2.30;99.90;;;;;;4909965;28;20246;-82
2022/11/21 08:08:28;;;;;;;57.53;29.10;;;-2.30;99.90;;;;;;4903244;28;20233;-79
2022/11/21 08:10:55;;;;;;;73.77;26.53;;;-2.30;99.90;;;;;;4903595;28;20274;-80
2022/11/21 08:13:22;;;;;;;91.87;24.17;;;-2.30;99.90;;;;;;4900394;28;20243;-78
2022/11/21 08:15:48;;;;;;;55.97;24.37;;;-2.30;99.90;;;;;;4903769;28;20226;-79
2022/11/21 08:18:17;;;;;;;42.30;22.93;;;-2.30;99.90;;;;;;4915820;28;20226;-82
2022/11/21 08:20:44;;;;;;;125.20;27.13;;;-2.30;99.90;;;;;;4909141;28;20230;-81
2022/11/21 08:23:12;;;;;;;110.40;24.13;;;-2.30;99.90;;;;;;4911911;28;20272;-83
2022/11/21 08:25:41;;;;;;;148.97;25.87;;;-2.30;99.90;;;;;;4908448;28;20740;-83
2022/11/21 08:28:11;;;;;;;78.73;24.07;;;-2.30;99.90;;;;;;4914163;28;20235;-83
2022/11/21 08:30:39;;;;;;;113.43;26.90;;;-2.30;99.90;;;;;;4913222;28;20232;-80
2022/11/21 08:33:06;;;;;;;142.90;27.43;;;-2.40;99.90;;;;;;4914145;28;20239;-80
2022/11/21 08:35:36;;;;;;;56.40;23.60;;;-2.40;99.90;;;;;;4909414;28;20231;-80
2022/11/21 08:38:03;;;;;;;97.87;25.57;;;-2.30;99.90;;;;;;4904001;28;20633;-84
2022/11/21 08:40:32;;;;;;;325.67;38.90;;;-2.30;99.90;;;;;;4947022;28;20262;-81
2022/11/21 08:43:00;;;;;;;118.73;25.33;;;-2.30;99.90;;;;;;4940842;28;20213;-85
2022/11/21 08:45:26;;;;;;;93.57;24.83;;;-2.30;99.90;;;;;;4924880;28;20234;-82
2022/11/21 08:47:53;;;;;;;123.80;26.43;;;-2.30;99.90;;;;;;4906322;28;20236;-79
2022/11/21 08:50:20;;;;;;;71.97;24.80;;;-2.40;99.90;;;;;;4907377;28;20260;-84
2022/11/21 08:52:47;;;;;;;48.70;22.23;;;-2.40;99.90;;;;;;4906331;28;20231;-85
2022/11/21 08:55:14;;;;;;;49.87;21.90;;;-2.40;99.90;;;;;;4909454;28;20719;-79
2022/11/21 08:57:42;;;;;;;100.40;24.20;;;-2.40;99.90;;;;;;4906943;28;20254;-84
2022/11/21 09:00:12;;;;;;;39.40;19.47;;;-2.40;99.90;;;;;;4916652;28;20252;-81
2022/11/21 09:02:39;;;;;;;51.80;21.93;;;-2.30;99.90;;;;;;4903738;28;20286;-81
2022/11/21 09:05:06;;;;;;;41.83;21.27;;;-2.30;99.90;;;;;;4907517;28;20225;-83
2022/11/21 09:07:33;;;;;;;70.53;23.10;;;-2.20;99.90;;;;;;4901271;28;20229;-81
2022/11/21 09:09:59;;;;;;;34.30;20.90;;;-2.20;99.90;;;;;;4908319;28;20237;-79
2022/11/21 09:12:26;;;;;;;54.30;22.57;;;-2.20;99.90;;;;;;4907241;28;20234;-81
2022/11/21 09:20:23;;;;;;;71.73;22.17;;;-2.10;99.90;;;;;;4915710;28;20230;-81
2022/11/21 09:22:50;;;;;;;53.80;22.90;;;-2.10;99.90;;;;;;4901349;28;20970;-78
2022/11/21 09:25:18;;;;;;;237.87;32.83;;;-2.10;99.90;;;;;;4903622;28;20428;-85
2022/11/21 09:27:45;;;;;;;50.10;22.30;;;-2.20;99.90;;;;;;4905730;28;20322;-82
2022/11/21 09:30:13;;;;;;;50.50;23.33;;;-2.10;99.90;;;;;;4911703;28;20734;-81
2022/11/21 09:32:40;;;;;;;53.03;23.13;;;-2.10;99.90;;;;;;4923948;29;20232;-81
2022/11/21 09:35:09;;;;;;;37.93;22.43;;;-2.00;99.90;;;;;;4909788;28;20238;-82
2022/11/21 09:37:36;;;;;;;42.37;22.03;;;-1.90;99.90;;;;;;4910959;28;20537;-78
2022/11/21 09:40:04;;;;;;;44.93;21.47;;;-1.90;99.90;;;;;;4914117;28;20222;-82
2022/11/21 09:42:52;;;;;;;32.53;21.17;;;-1.80;99.90;;;;;;4904211;28;20236;-80
2022/11/21 09:45:25;;;;;;;38.43;19.67;;;-1.70;99.90;;;;;;4925854;28;20243;-79
2022/11/21 09:47:52;;;;;;;42.13;20.10;;;-1.60;99.90;;;;;;4938896;28;20298;-79
2022/11/21 09:50:27;;;;;;;80.07;22.30;;;-1.50;99.90;;;;;;4909712;28;20225;-80
2022/11/21 09:52:58;;;;;;;79.90;22.60;;;-1.50;99.90;;;;;;4919529;28;20246;-78
2022/11/21 09:55:31;;;;;;;56.77;22.20;;;-1.30;99.90;;;;;;4918546;28;20804;-79
2022/11/21 09:58:02;;;;;;;89.57;27.40;;;-1.30;99.90;;;;;;4916034;28;20304;-79
2022/11/21 10:00:30;;;;;;;32.90;21.53;;;-1.10;99.90;;;;;;4919308;28;20237;-81
2022/11/21 10:02:58;;;;;;;30.30;19.47;;;-1.00;99.90;;;;;;4912672;28;20237;-82
2022/11/21 10:05:32;;;;;;;33.43;20.50;;;-0.90;99.90;;;;;;4905487;28;20270;-79
2022/11/21 10:08:07;;;;;;;33.63;20.47;;;-0.70;99.90;;;;;;4900696;28;20864;-79
2022/11/21 10:10:50;;;;;;;27.70;18.03;;;-0.60;99.90;;;;;;4915871;28;20240;-79
2022/11/21 10:13:28;;;;;;;26.30;17.13;;;-0.50;99.90;;;;;;4896084;28;20236;-79
2022/11/21 10:16:02;;;;;;;29.43;18.53;;;-0.40;99.90;;;;;;4904961;28;20216;-79
2022/11/21 10:19:03;;;;;;;28.20;18.40;;;-0.40;99.90;;;;;;4946068;28;20709;-79
2022/11/21 10:21:51;;;;;;;26.80;18.07;;;-0.40;99.90;;;;;;4897728;28;20220;-79
2022/11/21 10:24:30;;;;;;;27.37;17.57;;;-0.40;99.90;;;;;;4925243;28;20792;-79
2022/11/21 10:27:01;;;;;;;26.23;18.67;;;-0.40;99.90;;;;;;4927814;28;20224;-79
2022/11/21 10:29:32;;;;;;;25.20;17.47;;;-0.30;99.90;;;;;;4912004;28;20679;-80
2022/11/21 10:32:08;;;;;;;25.37;17.50;;;-0.20;99.90;;;;;;4900709;28;20768;-79
2022/11/21 10:34:37;;;;;;;24.87;17.50;;;-0.10;99.90;;;;;;4993071;28;20289;-79
2022/11/21 10:37:13;;;;;;;24.70;17.50;;;-0.10;99.90;;;;;;4908992;28;20244;-80
2022/11/21 10:39:43;;;;;;;30.80;18.27;;;0.00;99.90;;;;;;4906623;28;20252;-79
2022/11/21 10:42:27;;;;;;;34.20;18.43;;;0.00;99.90;;;;;;4897952;28;20255;-79
2022/11/21 10:47:40;;;;;;;25.57;17.67;;;0.00;99.90;;;;;;4902458;28;20295;-79
2022/11/21 10:50:34;;;;;;;27.50;17.47;;;0.00;99.90;;;;;;4919174;28;20242;-79
2022/11/21 10:56:00;;;;;;;26.57;17.63;;;-0.20;99.90;;;;;;4910467;28;20238;-79
2022/11/21 10:58:36;;;;;;;25.07;17.50;;;-0.20;99.90;;;;;;4908407;28;20239;-79
2022/11/21 11:01:03;;;;;;;27.20;17.87;;;-0.20;99.90;;;;;;4904806;28;20224;-79
2022/11/21 11:03:32;;;;;;;29.97;20.03;;;-0.20;99.90;;;;;;4948192;28;20235;-79
2022/11/21 11:05:59;;;;;;;27.60;18.33;;;-0.30;99.90;;;;;;4901052;28;20772;-79
2022/11/21 11:08:27;;;;;;;26.63;17.97;;;-0.20;99.90;;;;;;4905093;28;20228;-79
2022/11/21 11:11:05;;;;;;;28.00;19.20;;;-0.20;99.90;;;;;;4907129;28;20228;-79
2022/11/21 11:13:33;;;;;;;27.63;18.33;;;-0.10;99.90;;;;;;4991892;28;20267;-79
2022/11/21 11:16:04;;;;;;;27.73;17.90;;;0.00;99.90;;;;;;4905701;28;20645;-79
2022/11/21 11:18:35;;;;;;;24.50;17.23;;;0.00;99.90;;;;;;4947975;28;20231;-79
2022/11/21 11:21:15;;;;;;;28.60;17.70;;;0.10;99.90;;;;;;4919716;28;20227;-79
2022/11/21 11:23:42;;;;;;;24.40;17.10;;;0.30;99.90;;;;;;4975842;28;20332;-79
2022/11/21 11:26:22;;;;;;;24.90;17.37;;;0.40;99.90;;;;;;4904611;28;20235;-79
2022/11/21 11:28:49;;;;;;;25.17;16.13;;;0.60;99.90;;;;;;4905253;28;20239;-80
2022/11/21 11:31:16;;;;;;;25.23;16.00;;;0.70;99.90;;;;;;4909365;28;20271;-81
2022/11/21 11:33:51;;;;;;;23.03;16.37;;;0.90;99.90;;;;;;4904896;28;20236;-79
2022/11/21 11:36:32;;;;;;;23.33;16.03;;;1.00;99.90;;;;;;4907557;28;20241;-79
2022/11/21 11:39:00;;;;;;;21.40;15.10;;;1.20;99.90;;;;;;4908349;28;20232;-80
2022/11/21 11:47:38;;;;;;;19.80;14.30;;;1.80;99.90;;;;;;4915117;28;20225;-79
2022/11/21 11:50:11;;;;;;;18.03;13.80;;;2.00;99.90;;;;;;4901217;28;20242;-79
2022/11/21 11:52:49;;;;;;;19.70;13.87;;;2.20;99.90;;;;;;4925129;28;20235;-79
2022/11/21 11:55:20;;;;;;;19.43;13.77;;;2.40;99.90;;;;;;4906616;28;20306;-79
2022/11/21 11:57:50;;;;;;;17.03;12.93;;;2.50;99.90;;;;;;4902366;28;20220;-79
2022/11/21 12:00:32;;;;;;;20.37;13.30;;;2.60;99.90;;;;;;4906879;28;20295;-80
2022/11/21 12:03:06;;;;;;;17.30;12.63;;;2.70;99.90;;;;;;4920816;28;20767;-79
2022/11/21 12:05:37;;;;;;;17.10;12.53;;;2.80;99.90;;;;;;4944574;28;20231;-79
2022/11/21 12:08:13;;;;;;;15.93;12.60;;;2.80;99.90;;;;;;4899003;28;20671;-79
2022/11/21 12:13:25;;;;;;;17.17;11.87;;;2.80;99.90;;;;;;4896138;28;20240;-79
2022/11/21 12:15:56;;;;;;;13.83;11.20;;;2.80;99.90;;;;;;4903077;29;20244;-79
2022/11/21 12:18:30;;;;;;;15.30;11.07;;;2.90;99.90;;;;;;4902131;28;20231;-79
2022/11/21 12:21:03;;;;;;;14.83;11.33;;;3.00;99.90;;;;;;4900750;28;20239;-79
2022/11/21 12:23:34;;;;;;;16.73;11.50;;;3.00;99.90;;;;;;4903087;28;20237;-79
2022/11/21 12:26:14;;;;;;;17.17;11.97;;;3.10;99.90;;;;;;4908769;28;20230;-79
2022/11/21 12:28:51;;;;;;;16.87;10.60;;;3.20;99.90;;;;;;4894382;28;20701;-79
2022/11/21 12:31:25;;;;;;;14.00;10.70;;;3.10;99.90;;;;;;4899574;28;20534;-79
2022/11/21 12:33:58;;;;;;;13.73;10.60;;;3.20;99.90;;;;;;4907845;28;20491;-79
2022/11/21 12:36:33;;;;;;;15.13;11.40;;;3.20;99.90;;;;;;4904845;28;20710;-79
2022/11/21 12:39:19;;;;;;;16.63;11.27;;;3.20;99.90;;;;;;4902128;28;20614;-79
2022/11/21 12:44:54;;;;;;;14.00;10.50;;;3.10;99.90;;;;;;4905764;28;20592;-80
2022/11/21 12:56:22;;;;;;;15.20;10.13;;;2.70;99.90;;;;;;4903903;28;20225;-79
2022/11/21 12:58:54;;;;;;;14.73;10.70;;;2.60;99.90;;;;;;4901939;28;20228;-79
2022/11/21 13:01:27;;;;;;;13.03;9.93;;;2.60;99.90;;;;;;4906484;28;20649;-79
2022/11/21 13:03:59;;;;;;;15.00;10.60;;;2.50;99.90;;;;;;4906394;28;20248;-79
2022/11/21 13:06:28;;;;;;;13.37;9.83;;;2.50;99.90;;;;;;4903656;28;20709;-79
2022/11/21 13:09:01;;;;;;;12.00;8.63;;;2.40;99.90;;;;;;4912434;28;20249;-79
2022/11/21 13:14:26;;;;;;;12.27;9.10;;;2.30;99.90;;;;;;4907679;28;20255;-79
2022/11/21 13:17:03;;;;;;;12.33;8.60;;;2.30;99.90;;;;;;4906900;28;20232;-79